createdAt,value
2023-05-05T00:01:35.480Z,99027.06
2023-05-05T00:04:02.785Z,99032.75
2023-05-05T00:06:29.774Z,99028.66
2023-05-05T00:08:56.757Z,99032.59
2023-05-05T00:11:24.047Z,99026.97
2023-05-05T00:13:51.614Z,99014.84
2023-05-05T00:16:19.061Z,99016.03
2023-05-05T00:18:46.020Z,99013.88
2023-05-05T00:21:13.430Z,99016.47
2023-05-05T00:23:40.520Z,99014.25
2023-05-05T00:26:08.006Z,99008.63
2023-05-05T00:28:35.050Z,99004.50
2023-05-05T00:31:02.441Z,99009.94
2023-05-05T00:33:29.444Z,99007.31
2023-05-05T00:35:56.712Z,99009.63
2023-05-05T00:38:23.659Z,99001.59
2023-05-05T00:40:50.909Z,99002.22
2023-05-05T00:43:17.924Z,99006.50
2023-05-05T00:45:48.101Z,99007.44
2023-05-05T00:48:17.120Z,99002.41
2023-05-05T00:50:45.352Z,99000.72
2023-05-05T00:53:12.365Z,98999.88
2023-05-05T00:55:39.621Z,99005.44
2023-05-05T00:58:06.670Z,99005.00
2023-05-05T01:00:34.859Z,99008.72
2023-05-05T01:03:01.956Z,99005.28
2023-05-05T01:05:47.356Z,98996.59
2023-05-05T01:08:53.592Z,99000.47
2023-05-05T01:11:49.856Z,99002.16
2023-05-05T01:14:23.218Z,99007.22
2023-05-05T01:16:57.382Z,98997.31
2023-05-05T01:19:46.430Z,98994.44
2023-05-05T01:22:15.456Z,98996.63
2023-05-05T01:25:11.879Z,98992.13
2023-05-05T01:27:52.832Z,98998.50
2023-05-05T01:30:32.197Z,98996.88
2023-05-05T01:33:04.625Z,98991.56
2023-05-05T01:35:38.019Z,98987.53
2023-05-05T01:38:14.513Z,98994.81
2023-05-05T01:40:47.205Z,98993.81
2023-05-05T01:43:16.400Z,99002.72
2023-05-05T01:45:45.030Z,99007.41
2023-05-05T01:48:12.852Z,99006.56
2023-05-05T01:50:44.195Z,99001.19
2023-05-05T01:53:12.106Z,99001.28
2023-05-05T01:55:39.525Z,98998.34
2023-05-05T01:58:07.761Z,98998.84
2023-05-05T02:00:35.126Z,99004.50
2023-05-05T02:03:04.798Z,99000.34
2023-05-05T02:05:33.063Z,99000.16
2023-05-05T02:08:00.617Z,98994.34
2023-05-05T02:10:28.520Z,99004.63
2023-05-05T02:12:56.068Z,99003.41
2023-05-05T02:15:23.949Z,98991.41
2023-05-05T02:17:54.919Z,98989.41
2023-05-05T02:20:22.808Z,99000.28
2023-05-05T02:22:50.352Z,98990.09
2023-05-05T02:25:20.133Z,98987.25
2023-05-05T02:27:48.878Z,98985.47
2023-05-05T02:30:18.437Z,98988.16
2023-05-05T02:32:54.209Z,98998.53
2023-05-05T02:35:24.653Z,98992.00
2023-05-05T02:37:59.546Z,98997.75
2023-05-05T02:40:26.882Z,98990.91
2023-05-05T02:42:56.474Z,98989.53
2023-05-05T02:45:23.639Z,98992.06
2023-05-05T02:47:51.038Z,98991.56
2023-05-05T02:50:18.589Z,98987.78
2023-05-05T02:52:46.411Z,98984.31
2023-05-05T02:55:13.866Z,98984.31
2023-05-05T02:57:52.182Z,98988.03
2023-05-05T03:00:38.759Z,98979.78
2023-05-05T03:03:17.991Z,98986.53
2023-05-05T03:05:51.930Z,98978.09
2023-05-05T03:08:44.062Z,98982.34
2023-05-05T03:11:33.538Z,98986.34
2023-05-05T03:14:17.281Z,98990.81
2023-05-05T03:16:46.276Z,98984.75
2023-05-05T03:19:16.960Z,98986.44
2023-05-05T03:21:44.467Z,98982.50
2023-05-05T03:24:16.226Z,98978.75
2023-05-05T03:26:44.270Z,98991.16
2023-05-05T03:29:12.537Z,98990.50
2023-05-05T03:31:39.979Z,98992.03
2023-05-05T03:34:08.049Z,98998.41
2023-05-05T03:36:36.207Z,99002.72
2023-05-05T03:39:03.838Z,98998.06
2023-05-05T03:41:30.936Z,99007.97
2023-05-05T03:43:58.219Z,99005.50
2023-05-05T03:46:25.660Z,99013.34
2023-05-05T03:48:52.897Z,99011.41
2023-05-05T03:51:19.937Z,99010.97
2023-05-05T03:53:47.668Z,99014.69
2023-05-05T03:56:14.593Z,99014.78
2023-05-05T03:58:42.317Z,99016.69
2023-05-05T04:01:09.573Z,99015.44
2023-05-05T04:03:36.878Z,99013.94
2023-05-05T04:06:03.978Z,99014.44
2023-05-05T04:08:31.413Z,99007.91
2023-05-05T04:10:58.497Z,99011.31
2023-05-05T04:13:26.054Z,99014.44
2023-05-05T04:15:53.123Z,99011.03
2023-05-05T04:18:20.472Z,99010.03
2023-05-05T04:20:47.767Z,98997.44
2023-05-05T04:23:15.166Z,98994.66
2023-05-05T04:25:42.455Z,99001.69
2023-05-05T04:28:10.296Z,99004.19
2023-05-05T04:30:38.162Z,99010.31
2023-05-05T04:33:05.671Z,99013.66
2023-05-05T04:35:32.820Z,99013.84
2023-05-05T04:38:00.873Z,99014.72
2023-05-05T04:40:28.053Z,99027.31
2023-05-05T04:42:55.528Z,99030.69
2023-05-05T04:45:22.753Z,99027.00
2023-05-05T04:47:50.259Z,99025.94
2023-05-05T04:50:17.298Z,99027.03
2023-05-05T04:52:44.661Z,99026.59
2023-05-05T04:55:11.842Z,99017.69
2023-05-05T04:57:39.488Z,99018.25
2023-05-05T05:00:08.009Z,99012.38
2023-05-05T05:02:37.892Z,99013.63
2023-05-05T05:05:55.497Z,99019.88
2023-05-05T05:08:23.008Z,99032.41
2023-05-05T05:10:50.117Z,99022.81
2023-05-05T05:13:17.740Z,99016.59
2023-05-05T05:15:45.780Z,99030.78
2023-05-05T05:22:10.786Z,99036.84
2023-05-05T05:25:43.710Z,99037.28
2023-05-05T05:28:11.409Z,99038.16
2023-05-05T05:31:41.226Z,99043.16
2023-05-05T05:34:13.826Z,99038.91
2023-05-05T05:36:41.069Z,99029.97
2023-05-05T05:39:08.924Z,99038.16
2023-05-05T05:46:01.896Z,99042.94
2023-05-05T05:48:29.735Z,99047.28
2023-05-05T05:50:57.172Z,99048.84
2023-05-05T05:53:24.894Z,99054.22
2023-05-05T05:55:51.926Z,99049.91
2023-05-05T05:58:19.626Z,99048.97
2023-05-05T06:02:01.378Z,99047.75
2023-05-05T06:04:29.027Z,99056.63
2023-05-05T06:06:56.571Z,99047.97
2023-05-05T06:09:24.361Z,99049.81
2023-05-05T06:11:51.648Z,99059.38
2023-05-05T06:14:20.138Z,99046.59
2023-05-05T06:16:50.413Z,99051.72
2023-05-05T06:19:18.038Z,99054.25
2023-05-05T06:21:45.100Z,99050.06
2023-05-05T06:24:12.651Z,99050.81
2023-05-05T06:26:44.681Z,99057.06
2023-05-05T06:29:12.433Z,99053.38
2023-05-05T06:31:39.793Z,99050.44
2023-05-05T06:34:11.055Z,99056.19
2023-05-05T06:36:38.141Z,99054.03
2023-05-05T06:39:05.566Z,99049.66
2023-05-05T06:41:32.568Z,99056.28
2023-05-05T06:44:00.116Z,99060.88
2023-05-05T06:46:27.262Z,99052.91
2023-05-05T06:48:54.689Z,99057.63
2023-05-05T06:51:22.907Z,99051.38
2023-05-05T06:53:50.538Z,99054.44
2023-05-05T06:56:21.074Z,99062.53
2023-05-05T06:58:48.419Z,99064.41
2023-05-05T07:01:17.630Z,99058.41
2023-05-05T07:03:45.331Z,99054.38
2023-05-05T07:06:12.763Z,99052.94
2023-05-05T07:08:40.192Z,99049.88
2023-05-05T07:11:07.285Z,99055.88
2023-05-05T07:13:34.564Z,99059.22
2023-05-05T07:16:01.697Z,99053.16
2023-05-05T07:18:29.073Z,99046.94
2023-05-05T07:20:56.683Z,99047.13
2023-05-05T07:23:24.258Z,99038.47
2023-05-05T07:25:51.358Z,99033.31
2023-05-05T07:28:18.906Z,99032.06
2023-05-05T07:31:02.601Z,99051.59
2023-05-05T07:33:30.687Z,99037.03
2023-05-05T07:35:57.836Z,99040.91
2023-05-05T07:38:26.161Z,99035.59
2023-05-05T07:40:53.158Z,99035.19
2023-05-05T07:43:20.700Z,99037.50
2023-05-05T07:45:47.953Z,99027.84
2023-05-05T07:48:15.460Z,99023.69
2023-05-05T07:50:42.925Z,99025.03
2023-05-05T07:53:14.824Z,99030.41
2023-05-05T07:55:42.503Z,99016.34
2023-05-05T07:58:11.252Z,99024.78
2023-05-05T08:00:38.932Z,99027.72
2023-05-05T08:03:08.988Z,99025.50
2023-05-05T08:05:38.429Z,99021.22
2023-05-05T08:08:08.232Z,99024.31
2023-05-05T08:10:35.330Z,99027.94
2023-05-05T08:13:03.192Z,99025.16
2023-05-05T08:15:30.879Z,99021.22
2023-05-05T08:17:58.540Z,99026.06
2023-05-05T08:20:28.997Z,99027.91
2023-05-05T08:22:56.869Z,99025.38
2023-05-05T08:25:24.672Z,99022.13
2023-05-05T08:27:52.410Z,99025.88
2023-05-05T08:30:21.642Z,99028.31
2023-05-05T08:32:49.189Z,99021.91
2023-05-05T08:35:16.476Z,99020.03
2023-05-05T08:37:45.080Z,99019.19
2023-05-05T08:40:15.976Z,99017.06
2023-05-05T08:42:45.691Z,99021.88
2023-05-05T08:45:12.978Z,99027.94
2023-05-05T08:47:40.564Z,99013.91
2023-05-05T08:50:21.649Z,99018.03
2023-05-05T08:52:51.780Z,99020.25
2023-05-05T08:55:33.942Z,99017.97
2023-05-05T08:58:05.117Z,99020.69
2023-05-05T09:00:47.716Z,99021.09
2023-05-05T09:03:16.460Z,99008.66
2023-05-05T09:05:44.582Z,99007.13
2023-05-05T09:08:12.330Z,99007.03
2023-05-05T09:10:43.092Z,98996.09
2023-05-05T09:13:16.714Z,99010.66
2023-05-05T09:15:56.775Z,99015.38
2023-05-05T09:18:24.179Z,99004.94
2023-05-05T09:20:51.350Z,99000.63
2023-05-05T09:23:20.251Z,99000.44
2023-05-05T09:26:03.925Z,98999.81
2023-05-05T09:28:32.833Z,98997.53
2023-05-05T09:31:16.086Z,99003.09
2023-05-05T09:33:44.595Z,99002.66
2023-05-05T09:36:12.643Z,98998.38
2023-05-05T09:38:40.103Z,98992.59
2023-05-05T09:41:07.310Z,98993.91
2023-05-05T09:43:52.053Z,98994.13
2023-05-05T09:46:19.476Z,99002.44
2023-05-05T09:48:46.957Z,99006.38
2023-05-05T09:51:14.109Z,99012.38
2023-05-05T09:53:42.620Z,99015.66
2023-05-05T09:56:10.587Z,99007.75
2023-05-05T09:58:38.033Z,99005.28
2023-05-05T10:01:05.314Z,99002.09
2023-05-05T10:03:33.119Z,98998.78
2023-05-05T10:06:01.277Z,98999.44
2023-05-05T10:08:34.143Z,99000.97
2023-05-05T10:11:07.428Z,99004.94
2023-05-05T10:13:42.297Z,98994.75
2023-05-05T10:16:10.039Z,98993.16
2023-05-05T10:18:40.076Z,98993.19
2023-05-05T10:21:08.563Z,98994.78
2023-05-05T10:23:58.692Z,99000.75
2023-05-05T10:26:27.023Z,98994.97
2023-05-05T10:29:02.490Z,98998.28
2023-05-05T10:31:53.377Z,98988.13
2023-05-05T10:34:38.254Z,98996.78
2023-05-05T10:37:07.246Z,98994.47
2023-05-05T10:39:37.143Z,98990.47
2023-05-05T10:42:04.359Z,98985.47
2023-05-05T10:44:33.500Z,98980.81
2023-05-05T10:47:00.885Z,98973.38
2023-05-05T10:49:56.536Z,98981.38
2023-05-05T10:52:32.762Z,98973.38
2023-05-05T10:55:21.801Z,98966.53
2023-05-05T10:57:53.349Z,98967.38
2023-05-05T11:00:39.434Z,98969.56
2023-05-05T11:03:18.684Z,98961.66
2023-05-05T11:06:05.201Z,98968.69
2023-05-05T11:08:33.949Z,98966.69
2023-05-05T11:11:02.038Z,98966.72
2023-05-05T11:13:29.964Z,98961.66
2023-05-05T11:15:58.479Z,98957.47
2023-05-05T11:18:36.594Z,98951.41
2023-05-05T11:21:04.918Z,98953.78
2023-05-05T11:23:32.102Z,98946.72
2023-05-05T11:26:00.245Z,98954.16
2023-05-05T11:28:31.192Z,98955.13
2023-05-05T11:30:59.007Z,98947.81
2023-05-05T11:33:34.198Z,98939.81
2023-05-05T11:36:28.910Z,98941.78
2023-05-05T11:39:12.419Z,98948.38
2023-05-05T11:41:49.814Z,98947.03
2023-05-05T11:44:17.938Z,98943.38
2023-05-05T11:46:51.417Z,98945.59
2023-05-05T11:49:31.864Z,98938.91
2023-05-05T11:52:06.215Z,98942.19
2023-05-05T11:54:35.777Z,98943.06
2023-05-05T11:57:08.360Z,98932.50
2023-05-05T11:59:37.639Z,98937.81
2023-05-05T12:02:05.436Z,98933.78
2023-05-05T12:04:33.866Z,98936.50
2023-05-05T12:07:02.029Z,98919.84
2023-05-05T12:09:29.211Z,98917.47
2023-05-05T12:11:58.233Z,98925.84
2023-05-05T12:14:36.236Z,98920.00
2023-05-05T12:17:10.739Z,98914.03
2023-05-05T12:19:45.873Z,98911.03
2023-05-05T12:22:25.532Z,98913.19
2023-05-05T12:25:01.855Z,98911.84
2023-05-05T12:27:29.749Z,98911.34
2023-05-05T12:29:57.934Z,98912.03
2023-05-05T12:32:28.057Z,98911.50
2023-05-05T12:35:00.031Z,98915.16
2023-05-05T12:37:28.053Z,98903.13
2023-05-05T12:39:55.623Z,98912.19
2023-05-05T12:42:23.606Z,98908.69
2023-05-05T12:44:51.016Z,98899.19
2023-05-05T12:47:32.425Z,98907.22
2023-05-05T12:50:00.936Z,98898.38
2023-05-05T12:52:45.366Z,98910.50
2023-05-05T12:55:13.256Z,98896.72
2023-05-05T12:58:02.356Z,98905.19
2023-05-05T13:00:29.565Z,98888.22
2023-05-05T13:02:57.179Z,98897.19
2023-05-05T13:05:44.520Z,98892.72
2023-05-05T13:08:14.453Z,98889.72
2023-05-05T13:10:59.230Z,98892.91
2023-05-05T13:13:27.093Z,98885.66
2023-05-05T13:15:54.414Z,98884.53
2023-05-05T13:18:21.961Z,98867.91
2023-05-05T13:20:49.816Z,98869.06
2023-05-05T13:23:17.433Z,98875.19
2023-05-05T13:25:45.005Z,98869.84
2023-05-05T13:28:12.963Z,98872.44
2023-05-05T13:30:42.076Z,98867.94
2023-05-05T13:33:10.023Z,98869.53
2023-05-05T13:35:37.098Z,98873.19
2023-05-05T13:38:04.596Z,98860.41
2023-05-05T13:40:31.998Z,98863.53
2023-05-05T13:42:59.716Z,98861.22
2023-05-05T13:45:26.928Z,98856.25
2023-05-05T13:47:54.482Z,98851.53
2023-05-05T13:50:21.837Z,98854.66
2023-05-05T13:52:49.438Z,98852.22
2023-05-05T13:55:17.093Z,98855.41
2023-05-05T13:57:44.619Z,98844.59
2023-05-05T14:00:12.538Z,98838.41
2023-05-05T14:02:40.136Z,98848.56
2023-05-05T14:05:08.168Z,98834.69
2023-05-05T14:07:36.358Z,98835.16
2023-05-05T14:10:03.590Z,98832.56
2023-05-05T14:12:30.925Z,98819.47
2023-05-05T14:14:58.830Z,98822.16
2023-05-05T14:17:26.470Z,98821.25
2023-05-05T14:19:53.562Z,98817.44
2023-05-05T14:22:21.024Z,98819.13
2023-05-05T14:24:48.443Z,98817.84
2023-05-05T14:27:16.178Z,98811.91
2023-05-05T14:29:43.271Z,98817.56
2023-05-05T14:32:11.250Z,98818.78
2023-05-05T14:34:38.246Z,98817.47
2023-05-05T14:37:05.582Z,98812.16
2023-05-05T14:39:32.584Z,98813.22
2023-05-05T14:42:00.069Z,98816.56
2023-05-05T14:44:27.287Z,98809.66
2023-05-05T14:46:54.870Z,98818.06
2023-05-05T14:49:21.825Z,98823.56
2023-05-05T14:51:49.183Z,98820.41
2023-05-05T14:54:27.536Z,98816.28
2023-05-05T14:56:56.448Z,98811.88
2023-05-05T14:59:23.762Z,98820.31
2023-05-05T15:01:51.256Z,98814.09
2023-05-05T15:04:18.325Z,98815.13
2023-05-05T15:06:46.097Z,98814.56
2023-05-05T15:09:13.500Z,98819.78
2023-05-05T15:11:45.169Z,98826.53
2023-05-05T15:14:12.472Z,98815.59
2023-05-05T15:16:40.125Z,98814.56
2023-05-05T15:19:07.628Z,98815.03
2023-05-05T15:21:34.967Z,98816.56
2023-05-05T15:24:02.104Z,98811.09
2023-05-05T15:26:29.581Z,98816.41
2023-05-05T15:28:56.906Z,98820.88
2023-05-05T15:31:24.368Z,98817.38
2023-05-05T15:33:51.410Z,98812.34
2023-05-05T15:36:22.796Z,98823.38
2023-05-05T15:38:49.755Z,98822.00
2023-05-05T15:41:17.181Z,98823.22
2023-05-05T15:43:44.728Z,98819.13
2023-05-05T15:46:12.284Z,98823.09
2023-05-05T15:48:39.727Z,98817.97
2023-05-05T15:51:06.994Z,98807.56
2023-05-05T15:53:34.077Z,98811.22
2023-05-05T15:56:01.404Z,98811.41
2023-05-05T15:58:28.366Z,98805.22
2023-05-05T16:00:55.728Z,98797.94
2023-05-05T16:03:22.901Z,98808.63
2023-05-05T16:05:50.259Z,98798.19
2023-05-05T16:08:17.406Z,98802.69
2023-05-05T16:10:44.842Z,98797.25
2023-05-05T16:13:11.933Z,98797.91
2023-05-05T16:15:39.281Z,98795.16
2023-05-05T16:18:06.767Z,98799.78
2023-05-05T16:20:34.355Z,98792.91
2023-05-05T16:23:01.622Z,98796.88
2023-05-05T16:25:28.888Z,98801.38
2023-05-05T16:27:57.697Z,98795.25
2023-05-05T16:30:24.975Z,98792.03
2023-05-05T16:32:52.471Z,98806.22
2023-05-05T16:35:20.641Z,98808.19
2023-05-05T16:37:48.150Z,98801.34
2023-05-05T16:40:15.515Z,98806.66
2023-05-05T16:42:44.499Z,98792.44
2023-05-05T16:45:12.457Z,98797.28
2023-05-05T16:47:39.639Z,98798.09
2023-05-05T16:50:08.247Z,98795.03
2023-05-05T16:52:35.281Z,98797.72
2023-05-05T16:55:04.898Z,98795.72
2023-05-05T16:57:32.336Z,98801.13
2023-05-05T16:59:59.688Z,98802.06
2023-05-05T17:02:26.875Z,98801.56
2023-05-05T17:04:54.530Z,98806.34
2023-05-05T17:07:22.090Z,98798.75
2023-05-05T17:09:49.575Z,98805.72
2023-05-05T17:12:16.861Z,98810.09
2023-05-05T17:14:45.582Z,98813.66
2023-05-05T17:17:13.221Z,98812.06
2023-05-05T17:19:40.964Z,98814.47
2023-05-05T17:22:09.247Z,98820.19
2023-05-05T17:24:37.060Z,98820.00
2023-05-05T17:27:05.033Z,98819.88
2023-05-05T17:29:35.836Z,98818.25
2023-05-05T17:32:03.245Z,98819.47
2023-05-05T17:34:30.738Z,98830.59
2023-05-05T17:36:57.969Z,98841.91
2023-05-05T17:39:25.485Z,98836.56
2023-05-05T17:41:52.704Z,98835.47
2023-05-05T17:44:20.200Z,98829.06
2023-05-05T17:46:47.826Z,98830.59
2023-05-05T17:49:15.414Z,98833.50
2023-05-05T17:51:42.401Z,98831.97
2023-05-05T17:54:10.170Z,98836.31
2023-05-05T17:56:38.448Z,98832.09
2023-05-05T17:59:06.377Z,98824.28
2023-05-05T18:01:34.023Z,98839.09
2023-05-05T18:04:01.964Z,98839.19
2023-05-05T18:06:29.580Z,98838.78
2023-05-05T18:08:57.718Z,98841.59
2023-05-05T18:11:28.048Z,98856.50
2023-05-05T18:13:56.649Z,98853.56
2023-05-05T18:16:24.251Z,98850.38
2023-05-05T18:18:52.064Z,98849.66
2023-05-05T18:21:19.549Z,98854.94
2023-05-05T18:23:46.943Z,98863.97
2023-05-05T18:26:14.294Z,98864.16
2023-05-05T18:28:41.888Z,98859.72
2023-05-05T18:31:08.998Z,98864.59
2023-05-05T18:33:36.525Z,98861.25
2023-05-05T18:36:03.918Z,98860.09
2023-05-05T18:38:32.781Z,98858.94
2023-05-05T18:41:00.212Z,98857.09
2023-05-05T18:43:27.605Z,98861.41
2023-05-05T18:45:54.916Z,98859.03
2023-05-05T18:48:22.616Z,98861.06
2023-05-05T18:50:51.539Z,98860.66
2023-05-05T18:53:18.980Z,98855.91
2023-05-05T18:55:47.148Z,98851.03
2023-05-05T18:58:15.179Z,98847.94
2023-05-05T19:00:42.275Z,98853.22
2023-05-05T19:03:10.253Z,98851.25
2023-05-05T19:05:37.238Z,98845.50
2023-05-05T19:08:05.245Z,98849.50
2023-05-05T19:10:32.562Z,98848.63
2023-05-05T19:12:59.998Z,98855.38
2023-05-05T19:15:27.336Z,98848.69
2023-05-05T19:17:55.166Z,98850.66
2023-05-05T19:20:22.382Z,98847.00
2023-05-05T19:22:50.228Z,98848.91
2023-05-05T19:25:17.567Z,98848.91
2023-05-05T19:27:45.341Z,98841.31
2023-05-05T19:30:12.684Z,98839.56
2023-05-05T19:32:40.196Z,98854.22
2023-05-05T19:35:10.572Z,98844.78
2023-05-05T19:37:38.916Z,98837.56
2023-05-05T19:40:07.007Z,98842.56
2023-05-05T19:42:34.913Z,98846.66
2023-05-05T19:45:02.349Z,98837.47
2023-05-05T19:47:29.673Z,98844.22
2023-05-05T19:49:56.946Z,98842.22
2023-05-05T19:52:24.910Z,98844.97
2023-05-05T19:54:52.006Z,98847.97
2023-05-05T19:57:19.309Z,98840.31
2023-05-05T19:59:49.649Z,98842.94
2023-05-05T20:02:22.159Z,98839.72
2023-05-05T20:04:49.826Z,98843.50
2023-05-05T20:07:18.010Z,98838.34
2023-05-05T20:09:45.284Z,98839.47
2023-05-05T20:12:13.249Z,98836.84
2023-05-05T20:14:40.394Z,98839.59
2023-05-05T20:17:08.030Z,98841.50
2023-05-05T20:19:35.292Z,98839.00
2023-05-05T20:22:02.763Z,98833.25
2023-05-05T20:24:30.155Z,98831.34
2023-05-05T20:26:57.664Z,98833.25
2023-05-05T20:29:24.666Z,98832.78
2023-05-05T20:31:52.065Z,98825.34
2023-05-05T20:34:19.175Z,98824.03
2023-05-05T20:36:46.503Z,98818.03
2023-05-05T20:39:16.832Z,98820.44
2023-05-05T20:41:43.783Z,98811.81
2023-05-05T20:44:11.269Z,98825.94
2023-05-05T20:46:38.366Z,98821.06
2023-05-05T20:49:05.780Z,98828.72
2023-05-05T20:51:35.147Z,98817.69
2023-05-05T20:54:03.122Z,98820.09
2023-05-05T20:56:30.129Z,98822.00
2023-05-05T20:58:57.477Z,98826.44
2023-05-05T21:01:24.668Z,98825.09
2023-05-05T21:03:51.985Z,98827.25
2023-05-05T21:06:19.684Z,98814.09
2023-05-05T21:08:47.328Z,98813.03
2023-05-05T21:11:14.426Z,98816.75
2023-05-05T21:13:41.686Z,98813.88
2023-05-05T21:16:09.584Z,98809.09
2023-05-05T21:18:36.877Z,98805.97
2023-05-05T21:21:03.914Z,98802.28
2023-05-05T21:23:31.444Z,98799.41
2023-05-05T21:25:59.680Z,98794.75
2023-05-05T21:28:26.924Z,98798.56
2023-05-05T21:33:24.048Z,98794.38
2023-05-05T21:35:51.037Z,98793.53
2023-05-05T21:38:18.302Z,98791.84
2023-05-05T21:40:45.373Z,98792.34
2023-05-05T21:43:12.729Z,98776.44
2023-05-05T21:45:40.588Z,98775.03
2023-05-05T21:48:07.923Z,98778.34
2023-05-05T21:50:36.728Z,98775.13
2023-05-05T21:53:04.055Z,98771.06
2023-05-05T21:55:31.027Z,98781.56
2023-05-05T21:57:58.340Z,98779.44
2023-05-05T22:00:25.833Z,98781.94
2023-05-05T22:02:53.367Z,98772.97
2023-05-05T22:05:20.588Z,98773.19
2023-05-05T22:07:47.935Z,98776.06
2023-05-05T22:10:15.111Z,98776.78
2023-05-05T22:12:42.404Z,98783.94
2023-05-05T22:15:10.109Z,98783.84
2023-05-05T22:17:37.595Z,98784.91
2023-05-05T22:20:05.245Z,98788.69
2023-05-05T22:22:32.842Z,98785.50
2023-05-05T22:25:00.043Z,98781.47
2023-05-05T22:27:27.498Z,98778.69
2023-05-05T22:29:54.454Z,98781.81
2023-05-05T22:32:21.807Z,98786.84
2023-05-05T22:34:48.895Z,98779.69
2023-05-05T22:37:16.618Z,98776.69
2023-05-05T22:39:43.507Z,98771.91
2023-05-05T22:42:10.826Z,98781.13
2023-05-05T22:44:39.009Z,98771.53
2023-05-05T22:47:07.153Z,98778.50
2023-05-05T22:49:34.369Z,98773.19
2023-05-05T22:52:02.331Z,98763.53
2023-05-05T22:54:29.370Z,98761.84
2023-05-05T22:56:56.672Z,98762.69
2023-05-05T22:59:23.777Z,98757.81
2023-05-05T23:01:50.955Z,98754.91
2023-05-05T23:04:18.032Z,98745.34
2023-05-05T23:06:46.494Z,98749.41
2023-05-05T23:09:13.428Z,98750.88
2023-05-05T23:11:40.740Z,98745.72
2023-05-05T23:14:08.142Z,98742.00
2023-05-05T23:16:35.447Z,98744.50
2023-05-05T23:19:02.359Z,98737.47
2023-05-05T23:21:32.060Z,98742.09
2023-05-05T23:24:00.911Z,98737.09
2023-05-05T23:26:28.298Z,98740.66
2023-05-05T23:28:55.432Z,98745.19
2023-05-05T23:31:22.809Z,98735.88
2023-05-05T23:33:50.226Z,98734.66
2023-05-05T23:36:18.198Z,98742.56
2023-05-05T23:38:45.797Z,98745.78
2023-05-05T23:41:13.067Z,98751.72
2023-05-05T23:43:39.979Z,98742.06
2023-05-05T23:46:07.325Z,98738.97
2023-05-05T23:48:34.422Z,98749.69
2023-05-05T23:51:01.748Z,98736.28
2023-05-05T23:53:28.720Z,98746.78
2023-05-05T23:55:56.800Z,98743.41
2023-05-05T23:58:23.819Z,98740.69
